La Paloma, Texas
Current Conditions -  °F | °C
As of 2:52 PM on Wednesday 26 Nov 2014 (Local Time) from KHRL Reporting Station
Clear Clear  
Wind Chill: 74°   Ceiling: Unl
Heat Index: 74°   Visibility: 10mi
Dew Point: 40°   Wind: 14mph
Humidity: 29%   Direction: 190°S
Pressure: 30.21"   Gusts: NA
Location:  26.1784°N, 97.6678°W
Report Text: KHRL 262052Z 19012KT 10SM CLR 23/04 A3021 RMK AO2 SLP229 T02330044 56028
Loading
Personal Weather Stations






























Interactive Weather Map New forecast layout! Learn more

10-Day Weather Forecast

Advertisements
Track Severe Weather on mobile